Latest Coastal Weather Observations for Lake Macquarie - Cooranbong

IDN60701

Issued at 1:12 pm EST Saturday 1 October 2016 (issued every 10 minutes, with the page automatically refreshed every 10 minutes)

About coastal observations | Map of coastal stations | Coastal observations for NSW | Marine services | Other Formats
Station Details ID: 061412 Name: LAKE MACQUARIE AWS Lat: -33.09 Lon: 151.46 Height: 6.0 m
Data from the previous 72 hours. | See also: Recent months at Lake Macquarie - Cooranbong
Date/Time
EST
Temp
°C
Wind Pressure Rain since
9am
mm
Weather Cloud Vis
km
Sea
Height
m
Swell
Dir  Spd
kts
Gust
kts
hPa Trend Height
m
Period
s
Dir
01/01:00pm 20.5 WNW 10 20 1007.2 - 0.0 - - - - - - -
01/12:30pm 19.9 WNW 10 20 1007.4 - 0.0 - - - - - - -
01/12:00pm 19.7 NW 9 18 1007.4 - 0.0 - - - - - - -
01/11:30am 20.2 WNW 10 25 1007.6 - 0.0 - - - - - - -
01/11:00am 18.4 WNW 10 17 1007.8 - 0.0 - - - - - - -
01/10:30am 19.3 WNW 9 18 1008.0 - 0.0 - - - - - - -
01/10:00am 18.8 NW 8 13 1008.1 - 0.0 - - - - - - -
01/09:30am 18.2 WNW 12 21 1008.1 - 0.0 - - - - - - -
01/09:00am 18.4 NW 8 17 1008.2 - 0.0 - - - - - - -
01/08:30am 17.9 NW 9 16 1007.9 - 0.0 - - - - - - -
01/08:00am 17.7 NNW 7 13 1007.5 - 0.0 - - - - - - -
01/07:30am 16.7 NNW 6 11 1007.2 - 0.0 - - - - - - -
01/07:00am 15.9 NNW 5 9 1007.0 - 0.0 - - - - - - -
01/06:30am 14.8 NNW 4 8 1006.7 - 0.0 - - - - - - -
01/06:00am 14.0 NNW 3 5 1006.2 - 0.0 - - - - - - -
01/05:30am 14.0 NNW 3 7 1005.7 - 0.0 - - - - - - -
01/05:00am 13.5 NNW 3 4 1005.2 - 0.0 - - - - - - -
01/04:30am 14.1 NNW 2 9 1004.5 - 0.0 - - - - - - -
01/04:00am 14.3 NNW 4 10 1003.9 - 0.0 - - - - - - -
01/03:30am 14.1 NNW 4 8 1003.4 - 0.0 - - - - - - -
01/03:00am 14.4 NNW 5 12 1003.4 - 0.0 - - - - - - -
01/02:30am 14.5 NW 5 11 1003.2 - 0.0 - - - - - - -
01/02:00am 14.7 NW 6 14 1002.9 - 0.0 - - - - - - -
01/01:30am 14.8 NW 8 20 1002.7 - 0.0 - - - - - - -
01/01:00am 14.7 NW 9 19 1002.8 - 0.0 - - - - - - -
01/12:30am 14.3 NW 7 15 1002.9 - 0.0 - - - - - - -
01/12:00am 14.4 NW 9 17 1003.1 - 0.0 - - - - - - -
 
Date/Time
EST
Temp
°C
Wind Pressure Rain since
9am
mm
Weather Cloud Vis
km
Sea
Height
m
Swell
Dir  Spd
kts
Gust
kts
hPa Trend Height
m
Period
s
Dir
30/11:30pm 14.0 NNW 6 13 1003.5 - 0.0 - - - - - - -
30/11:00pm 13.9 NW 5 10 1003.7 - 0.0 - - - - - - -
30/10:30pm 13.8 NW 4 9 1003.8 - 0.0 - - - - - - -
30/10:00pm 14.0 NW 5 9 1003.7 - 0.0 - - - - - - -
30/09:30pm 13.6 NNW 4 9 1003.8 - 0.0 - - - - - - -
30/09:00pm 13.6 NW 3 6 1004.0 - 0.0 - - - - - - -
30/08:30pm 13.8 NW 5 10 1003.9 - 0.0 - - - - - - -
30/08:00pm 13.6 NW 2 6 1003.7 - 0.0 - - - - - - -
30/07:30pm 14.1 NW 5 12 1003.2 - 0.0 - - - - - - -
30/07:00pm 14.3 NW 5 13 1002.5 - 0.0 - - - - - - -
30/06:30pm 14.5 NW 6 13 1002.3 - 0.0 - - - - - - -
30/06:00pm 14.7 NW 8 16 1001.7 - 0.0 - - - - - - -
30/05:30pm 14.9 NW 5 11 1001.4 - 0.0 - - - - - - -
30/05:00pm 15.2 NW 9 15 1001.3 - 0.0 - - - - - - -
30/04:30pm 15.6 NW 8 14 1001.1 - 0.0 - - - - - - -
30/04:00pm 15.9 WNW 11 27 1000.7 - 0.0 - - - - - - -
30/03:30pm 15.8 NW 11 26 1000.5 - 0.0 - - - - - - -
30/03:00pm 16.6 WNW 10 20 1000.2 - 0.0 - - - - - - -
30/02:30pm 16.0 NW 10 19 1000.7 - 0.0 - - - - - - -
30/02:00pm 16.1 NW 9 21 1000.3 - 0.0 - - - - - - -
30/01:30pm 15.9 NW 10 20 1000.4 - 0.0 - - - - - - -
30/01:11pm 16.6 WNW 15 29 1000.2 - 0.0 - - - - - - -
30/01:00pm 18.0 WNW 13 27 1000.1 - 0.0 - - - - - - -
30/12:30pm 17.0 NW 9 23 1000.3 - 0.0 - - - - - - -
30/12:00pm 17.8 NW 9 16 1000.0 - 0.0 - - - - - - -
30/11:30am 18.5 NNW 9 19 999.9 - 0.0 - - - - - - -
30/11:00am 17.8 NNW 10 21 1000.0 - 0.0 - - - - - - -
30/10:30am 18.1 NNW 10 18 1000.1 - 0.0 - - - - - - -
30/10:00am 18.0 NNW 10 21 1000.4 - 0.0 - - - - - - -
30/09:30am 16.6 NNW 8 16 1000.6 - 0.0 - - - - - - -
30/09:00am 15.9 NNW 10 16 1000.7 - 3.2 - - - - - - -
30/08:30am 15.6 N 8 18 1000.9 - 3.2 - - - - - - -
30/08:00am 14.7 N 7 12 1000.6 - 3.2 - - - - - - -
30/07:30am 14.0 NNE 8 13 1000.6 - 3.2 - - - - - - -
30/07:00am 13.1 NNE 5 11 1000.7 - 3.2 - - - - - - -
30/06:30am 11.9 N 4 6 1000.5 - 3.2 - - - - - - -
30/06:00am 11.4 NE 3 5 1000.1 - 3.2 - - - - - - -
30/05:30am 12.8 N 4 7 999.9 - 3.2 - - - - - - -
30/05:00am 12.4 NNW 3 7 999.7 - 3.2 - - - - - - -
30/04:30am 13.2 NNW 5 10 999.7 - 3.2 - - - - - - -
30/04:00am 12.8 NNW 2 5 999.4 - 3.2 - - - - - - -
30/03:30am 14.0 NNW 5 17 999.7 - 3.2 - - - - - - -
30/03:00am 13.8 NNW 5 16 999.7 - 3.2 - - - - - - -
30/02:30am 12.8 S 3 8 999.8 - 3.2 - - - - - - -
30/02:00am 14.2 SW 3 11 999.9 - 3.2 - - - - - - -
30/01:30am 14.4 WNW 4 11 1000.0 - 3.2 - - - - - - -
30/01:00am 14.6 NW 4 12 1000.2 - 3.2 - - - - - - -
30/12:30am 14.9 WNW 7 14 999.8 - 3.2 - - - - - - -
30/12:00am 14.8 NW 7 17 999.9 - 3.2 - - - - - - -
 
Date/Time
EST
Temp
°C
Wind Pressure Rain since
9am
mm
Weather Cloud Vis
km
Sea
Height
m
Swell
Dir  Spd
kts
Gust
kts
hPa Trend Height
m
Period
s
Dir
29/11:30pm 14.4 NW 4 9 1000.4 - 3.2 - - - - - - -
29/11:00pm 14.2 NW 2 3 1000.4 - 3.2 - - - - - - -
29/10:30pm 14.9 NW 4 8 1000.1 - 3.2 - - - - - - -
29/10:00pm 15.3 WNW 5 12 999.6 - 3.2 - - - - - - -
29/09:30pm 15.2 NW 6 17 999.3 - 3.2 - - - - - - -
29/09:00pm 13.2 NW 2 5 999.0 - 3.2 - - - - - - -
29/08:30pm 11.8 CALM 0 0 999.0 - 3.2 - - - - - - -
29/08:00pm 12.7 WNW 3 6 998.7 - 3.2 - - - - - - -
29/07:30pm 11.9 N 1 3 998.6 - 3.2 - - - - - - -
29/07:00pm 13.1 CALM 0 0 998.1 - 3.2 - - - - - - -
29/06:30pm 14.3 N 3 4 997.6 - 3.2 - - - - - - -
29/06:00pm 16.6 NW 2 4 996.9 - 3.2 - - - - - - -
29/05:30pm 17.7 NW 6 15 996.3 - 3.2 - - - - - - -
29/05:00pm 18.3 NNW 8 18 996.0 - 3.2 - - - - - - -
29/04:30pm 18.1 N 8 14 996.1 - 3.2 - - - - - - -
29/04:00pm 18.2 N 5 10 996.1 - 3.2 - - - - - - -
29/03:30pm 18.2 N 3 5 995.9 - 3.2 - - - - - - -
29/03:00pm 18.0 N 4 6 996.4 - 3.0 Recent precip. - - - - - -
29/02:30pm 18.1 N 4 5 996.4 - 2.8 - - - - - - -
29/02:00pm 18.5 NNE 4 11 996.1 - 1.6 - - - - - - -
29/01:30pm 19.3 NNE 4 12 997.0 - 1.4 - - - - - - -
29/01:00pm 18.2 NNE 5 7 996.9 - 1.4 - - - - - - -
29/12:30pm 15.8 ENE 3 6 997.8 - 1.2 - - - - - - -
29/12:00pm 16.6 NE 3 7 998.4 - 0.6 Rain - - - - - -
29/11:30am 17.1 NE 4 8 999.1 - 0.2 - - - - - - -
29/11:00am 16.2 NE 2 4 999.7 - 0.2 - - - - - - -
29/10:30am 16.4 NE 4 7 999.9 - 0.0 - - - - - - -
29/10:00am 15.3 NNE 6 11 1000.5 - 0.0 - - - - - - -
29/09:30am 13.8 CALM 0 2 1001.2 - 0.0 - - - - - - -
29/09:00am 13.0 CALM 0 0 1001.2 - 0.4 - - - - - - -
29/08:30am 12.2 ESE 1 3 1001.8 - 0.4 - - - - - - -
29/08:00am 11.8 NW 3 5 1002.4 - 0.4 - - - - - - -
29/07:30am 11.3 CALM 0 0 1002.4 - 0.0 - - - - - - -
29/07:00am 10.2 CALM 0 0 1002.4 - 0.0 - - - - - - -
29/06:30am 9.8 CALM 0 0 1002.8 - 0.0 - - - - - - -
29/06:00am 9.0 CALM 0 0 1003.2 - 0.0 - - - - - - -
29/05:30am 8.6 CALM 0 2 1003.4 - 0.0 - - - - - - -
29/05:00am 8.4 CALM 0 0 1003.8 - 0.0 - - - - - - -
29/04:30am 8.1 CALM 0 0 1004.1 - 0.0 - - - - - - -
29/04:00am 7.7 CALM 0 0 1004.6 - 0.0 - - - - - - -
29/03:30am 7.3 CALM 0 0 1005.2 - 0.0 - - - - - - -
29/03:00am 6.8 E 1 2 1005.8 - 0.0 - - - - - - -
29/02:30am 7.2 CALM 0 0 1006.5 - 0.0 - - - - - - -
29/02:00am 7.5 CALM 0 0 1006.9 - 0.0 - - - - - - -
29/01:30am 7.7 CALM 0 0 1007.5 - 0.0 - - - - - - -
29/01:00am 7.8 CALM 0 0 1007.9 - 0.0 - - - - - - -
29/12:30am 8.0 CALM 0 0 1008.7 - 0.0 - - - - - - -
29/12:00am 8.2 CALM 0 0 1009.0 - 0.0 - - - - - - -
 
Date/Time
EST
Temp
°C
Wind Pressure Rain since
9am
mm
Weather Cloud Vis
km
Sea
Height
m
Swell
Dir  Spd
kts
Gust
kts
hPa Trend Height
m
Period
s
Dir
28/11:30pm 8.5 CALM 0 0 1009.7 - 0.0 - - - - - - -
28/11:00pm 8.5 CALM 0 0 1010.0 - 0.0 - - - - - - -
28/10:30pm 8.5 CALM 0 0 1010.4 - 0.0 - - - - - - -
28/10:00pm 9.1 CALM 0 0 1010.7 - 0.0 - - - - - - -
28/09:30pm 9.5 CALM 0 0 1011.0 - 0.0 - - - - - - -
28/09:00pm 9.7 CALM 0 0 1011.3 - 0.0 - - - - - - -
28/08:30pm 10.3 CALM 0 0 1011.5 - 0.0 - - - - - - -
28/08:00pm 10.5 CALM 0 0 1011.3 - 0.0 - - - - - - -
28/07:30pm 11.1 ENE 1 1 1011.3 - 0.0 - - - - - - -
28/07:00pm 12.2 CALM 0 0 1011.1 - 0.0 - - - - - - -
28/06:30pm 13.7 CALM 0 0 1011.2 - 0.0 - - - - - - -
28/06:00pm 15.3 CALM 0 0 1010.8 - 0.0 - - - - - - -
28/05:30pm 17.4 E 2 4 1010.6 - 0.0 - - - - - - -
28/05:00pm 18.1 ESE 5 7 1010.5 - 0.0 - - - - - - -
28/04:30pm 18.7 E 5 8 1010.6 - 0.0 - - - - - - -
28/04:00pm 18.9 E 6 8 1010.7 - 0.0 - - - - - - -
28/03:30pm 19.5 E 5 8 1010.8 - 0.0 - - - - - - -
28/03:00pm 19.8 E 6 9 1011.0 - 0.0 - - - - - - -
28/02:30pm 20.3 E 5 11 1011.4 - 0.0 - - - - - - -
28/02:00pm 20.4 ESE 5 8 1011.8 - 0.0 - - - - - - -
28/01:30pm 20.1 E 6 9 1012.2 - 0.0 - - - - - - -

Other Formats:

Comma delimited format used in spreadsheet applications
http://www.bom.gov.au/fwo/IDN60701/IDN60701.95767.axf

JavaScript Object Notation format (JSON) in row-major order
http://www.bom.gov.au/fwo/IDN60701/IDN60701.95767.json